sensor_id;sensor_type;location;lat;lon;timestamp;P1;durP1;ratioP1;P2;durP2;ratioP2
22814;SDS011;11574;51.058;13.712;2023-02-28T00:00:49;5.70;;;2.47;;
22814;SDS011;11574;51.058;13.712;2023-02-28T00:05:51;5.30;;;2.83;;
22814;SDS011;11574;51.058;13.712;2023-02-28T00:10:55;5.80;;;2.77;;
22814;SDS011;11574;51.058;13.712;2023-02-28T00:16:02;5.67;;;3.10;;
22814;SDS011;11574;51.058;13.712;2023-02-28T00:21:04;7.47;;;3.77;;
22814;SDS011;11574;51.058;13.712;2023-02-28T00:26:08;5.20;;;3.23;;
22814;SDS011;11574;51.058;13.712;2023-02-28T00:31:10;7.37;;;3.53;;
22814;SDS011;11574;51.058;13.712;2023-02-28T00:36:12;10.40;;;3.60;;
22814;SDS011;11574;51.058;13.712;2023-02-28T00:41:16;4.67;;;3.13;;
22814;SDS011;11574;51.058;13.712;2023-02-28T00:46:18;5.83;;;3.27;;
22814;SDS011;11574;51.058;13.712;2023-02-28T00:51:20;9.77;;;3.50;;
22814;SDS011;11574;51.058;13.712;2023-02-28T00:56:24;9.70;;;3.40;;
22814;SDS011;11574;51.058;13.712;2023-02-28T01:01:26;7.07;;;3.60;;
22814;SDS011;11574;51.058;13.712;2023-02-28T01:06:29;10.33;;;4.03;;
22814;SDS011;11574;51.058;13.712;2023-02-28T01:11:33;7.27;;;4.00;;
22814;SDS011;11574;51.058;13.712;2023-02-28T01:16:36;6.47;;;3.80;;
22814;SDS011;11574;51.058;13.712;2023-02-28T01:21:39;6.03;;;3.17;;
22814;SDS011;11574;51.058;13.712;2023-02-28T01:26:42;8.53;;;3.70;;
22814;SDS011;11574;51.058;13.712;2023-02-28T01:31:44;6.57;;;3.67;;
22814;SDS011;11574;51.058;13.712;2023-02-28T01:36:47;7.80;;;3.93;;
22814;SDS011;11574;51.058;13.712;2023-02-28T01:41:50;11.97;;;4.60;;
22814;SDS011;11574;51.058;13.712;2023-02-28T01:46:52;8.33;;;4.70;;
22814;SDS011;11574;51.058;13.712;2023-02-28T01:51:54;7.97;;;3.90;;
22814;SDS011;11574;51.058;13.712;2023-02-28T01:57:01;7.40;;;3.80;;
22814;SDS011;11574;51.058;13.712;2023-02-28T02:02:04;9.83;;;4.20;;
22814;SDS011;11574;51.058;13.712;2023-02-28T02:07:06;6.97;;;3.97;;
22814;SDS011;11574;51.058;13.712;2023-02-28T02:12:12;8.33;;;3.97;;
22814;SDS011;11574;51.058;13.712;2023-02-28T02:17:23;7.57;;;4.07;;
22814;SDS011;11574;51.058;13.712;2023-02-28T02:22:33;10.37;;;4.30;;
22814;SDS011;11574;51.058;13.712;2023-02-28T02:38:27;7.20;;;3.70;;
22814;SDS011;11574;51.058;13.712;2023-02-28T02:43:32;9.77;;;3.73;;
22814;SDS011;11574;51.058;13.712;2023-02-28T02:48:38;12.43;;;4.13;;
22814;SDS011;11574;51.058;13.712;2023-02-28T02:53:44;8.17;;;4.27;;
22814;SDS011;11574;51.058;13.712;2023-02-28T02:58:50;8.07;;;4.07;;
22814;SDS011;11574;51.058;13.712;2023-02-28T03:03:55;8.63;;;3.83;;
22814;SDS011;11574;51.058;13.712;2023-02-28T03:08:59;9.80;;;4.13;;
22814;SDS011;11574;51.058;13.712;2023-02-28T03:14:14;8.10;;;4.60;;
22814;SDS011;11574;51.058;13.712;2023-02-28T03:19:28;9.47;;;4.60;;
22814;SDS011;11574;51.058;13.712;2023-02-28T03:24:35;7.57;;;4.30;;
22814;SDS011;11574;51.058;13.712;2023-02-28T03:29:43;12.77;;;5.07;;
22814;SDS011;11574;51.058;13.712;2023-02-28T03:34:49;9.27;;;4.87;;
22814;SDS011;11574;51.058;13.712;2023-02-28T03:39:57;10.00;;;5.17;;
22814;SDS011;11574;51.058;13.712;2023-02-28T03:45:00;9.30;;;4.73;;
22814;SDS011;11574;51.058;13.712;2023-02-28T03:50:05;10.57;;;5.37;;
22814;SDS011;11574;51.058;13.712;2023-02-28T03:55:11;15.33;;;5.00;;
22814;SDS011;11574;51.058;13.712;2023-02-28T04:00:16;8.33;;;4.93;;
22814;SDS011;11574;51.058;13.712;2023-02-28T04:05:21;13.77;;;5.57;;
22814;SDS011;11574;51.058;13.712;2023-02-28T04:10:24;11.13;;;5.70;;
22814;SDS011;11574;51.058;13.712;2023-02-28T04:15:27;10.00;;;5.57;;
22814;SDS011;11574;51.058;13.712;2023-02-28T04:20:36;10.50;;;5.43;;
22814;SDS011;11574;51.058;13.712;2023-02-28T04:25:40;11.93;;;5.40;;
22814;SDS011;11574;51.058;13.712;2023-02-28T04:30:42;9.73;;;5.30;;
22814;SDS011;11574;51.058;13.712;2023-02-28T04:35:44;11.40;;;5.47;;
22814;SDS011;11574;51.058;13.712;2023-02-28T04:40:48;12.77;;;6.00;;
22814;SDS011;11574;51.058;13.712;2023-02-28T04:45:50;10.53;;;5.73;;
22814;SDS011;11574;51.058;13.712;2023-02-28T04:50:52;13.43;;;6.00;;
22814;SDS011;11574;51.058;13.712;2023-02-28T04:55:56;11.40;;;5.70;;
22814;SDS011;11574;51.058;13.712;2023-02-28T05:01:02;13.30;;;5.10;;
22814;SDS011;11574;51.058;13.712;2023-02-28T05:06:12;11.57;;;5.60;;
22814;SDS011;11574;51.058;13.712;2023-02-28T05:11:18;14.00;;;6.67;;
22814;SDS011;11574;51.058;13.712;2023-02-28T05:16:20;15.97;;;6.73;;
22814;SDS011;11574;51.058;13.712;2023-02-28T05:21:24;23.33;;;8.93;;
22814;SDS011;11574;51.058;13.712;2023-02-28T05:26:28;24.33;;;10.47;;
22814;SDS011;11574;51.058;13.712;2023-02-28T05:31:31;17.40;;;8.20;;
22814;SDS011;11574;51.058;13.712;2023-02-28T05:36:33;12.67;;;6.40;;
22814;SDS011;11574;51.058;13.712;2023-02-28T05:41:37;14.27;;;6.50;;
22814;SDS011;11574;51.058;13.712;2023-02-28T05:46:39;10.53;;;5.43;;
22814;SDS011;11574;51.058;13.712;2023-02-28T05:51:41;10.80;;;5.37;;
22814;SDS011;11574;51.058;13.712;2023-02-28T05:56:45;11.97;;;6.33;;
22814;SDS011;11574;51.058;13.712;2023-02-28T06:01:47;14.50;;;6.80;;
22814;SDS011;11574;51.058;13.712;2023-02-28T06:06:49;18.03;;;5.97;;
22814;SDS011;11574;51.058;13.712;2023-02-28T06:11:53;15.63;;;7.13;;
22814;SDS011;11574;51.058;13.712;2023-02-28T06:17:02;11.90;;;6.67;;
22814;SDS011;11574;51.058;13.712;2023-02-28T06:22:13;12.53;;;6.13;;
22814;SDS011;11574;51.058;13.712;2023-02-28T06:27:17;16.13;;;8.77;;
22814;SDS011;11574;51.058;13.712;2023-02-28T06:32:19;13.20;;;6.67;;
22814;SDS011;11574;51.058;13.712;2023-02-28T06:37:23;13.63;;;6.60;;
22814;SDS011;11574;51.058;13.712;2023-02-28T06:42:27;17.20;;;7.10;;
22814;SDS011;11574;51.058;13.712;2023-02-28T06:47:30;13.40;;;6.97;;
22814;SDS011;11574;51.058;13.712;2023-02-28T06:52:33;17.23;;;6.63;;
22814;SDS011;11574;51.058;13.712;2023-02-28T06:57:38;12.60;;;6.80;;
22814;SDS011;11574;51.058;13.712;2023-02-28T07:02:40;15.13;;;7.07;;
22814;SDS011;11574;51.058;13.712;2023-02-28T07:07:43;17.67;;;7.23;;
22814;SDS011;11574;51.058;13.712;2023-02-28T07:12:48;16.83;;;7.63;;
22814;SDS011;11574;51.058;13.712;2023-02-28T07:17:51;16.53;;;7.97;;
22814;SDS011;11574;51.058;13.712;2023-02-28T07:22:54;19.47;;;7.70;;
22814;SDS011;11574;51.058;13.712;2023-02-28T07:27:58;16.63;;;7.43;;
22814;SDS011;11574;51.058;13.712;2023-02-28T07:33:00;14.60;;;7.47;;
22814;SDS011;11574;51.058;13.712;2023-02-28T07:38:02;13.97;;;6.90;;
22814;SDS011;11574;51.058;13.712;2023-02-28T07:43:06;15.87;;;7.17;;
22814;SDS011;11574;51.058;13.712;2023-02-28T07:48:11;14.47;;;7.70;;
22814;SDS011;11574;51.058;13.712;2023-02-28T07:53:13;18.07;;;7.80;;
22814;SDS011;11574;51.058;13.712;2023-02-28T07:58:16;11.87;;;7.17;;
22814;SDS011;11574;51.058;13.712;2023-02-28T08:03:19;14.83;;;7.70;;
22814;SDS011;11574;51.058;13.712;2023-02-28T08:08:21;16.57;;;7.03;;
22814;SDS011;11574;51.058;13.712;2023-02-28T08:13:28;22.57;;;8.17;;
22814;SDS011;11574;51.058;13.712;2023-02-28T08:18:32;24.47;;;8.23;;
22814;SDS011;11574;51.058;13.712;2023-02-28T08:23:34;20.33;;;7.53;;
22814;SDS011;11574;51.058;13.712;2023-02-28T08:28:37;12.57;;;7.13;;
22814;SDS011;11574;51.058;13.712;2023-02-28T08:33:40;22.07;;;8.63;;
22814;SDS011;11574;51.058;13.712;2023-02-28T08:38:42;18.00;;;7.50;;
22814;SDS011;11574;51.058;13.712;2023-02-28T08:43:47;20.13;;;8.37;;
22814;SDS011;11574;51.058;13.712;2023-02-28T08:48:51;13.37;;;7.67;;
22814;SDS011;11574;51.058;13.712;2023-02-28T08:53:54;28.50;;;8.30;;
22814;SDS011;11574;51.058;13.712;2023-02-28T08:58:57;21.13;;;9.30;;
22814;SDS011;11574;51.058;13.712;2023-02-28T09:04:00;17.10;;;6.57;;
22814;SDS011;11574;51.058;13.712;2023-02-28T09:09:02;15.90;;;6.57;;
22814;SDS011;11574;51.058;13.712;2023-02-28T09:14:07;10.47;;;5.83;;
22814;SDS011;11574;51.058;13.712;2023-02-28T09:19:10;12.53;;;5.43;;
22814;SDS011;11574;51.058;13.712;2023-02-28T09:24:12;9.83;;;5.53;;
22814;SDS011;11574;51.058;13.712;2023-02-28T09:29:16;11.40;;;5.53;;
22814;SDS011;11574;51.058;13.712;2023-02-28T09:34:18;8.77;;;5.17;;
22814;SDS011;11574;51.058;13.712;2023-02-28T09:39:20;15.83;;;5.97;;
22814;SDS011;11574;51.058;13.712;2023-02-28T09:44:26;6.93;;;5.30;;
22814;SDS011;11574;51.058;13.712;2023-02-28T09:49:32;12.43;;;6.00;;
22814;SDS011;11574;51.058;13.712;2023-02-28T09:54:35;10.00;;;5.53;;
22814;SDS011;11574;51.058;13.712;2023-02-28T09:59:42;12.77;;;5.57;;
22814;SDS011;11574;51.058;13.712;2023-02-28T10:04:47;12.03;;;5.27;;
22814;SDS011;11574;51.058;13.712;2023-02-28T10:09:55;9.73;;;5.17;;
22814;SDS011;11574;51.058;13.712;2023-02-28T10:15:00;9.03;;;5.17;;
22814;SDS011;11574;51.058;13.712;2023-02-28T10:20:04;8.47;;;5.17;;
22814;SDS011;11574;51.058;13.712;2023-02-28T10:25:16;10.30;;;5.20;;
22814;SDS011;11574;51.058;13.712;2023-02-28T10:30:20;15.40;;;5.03;;
22814;SDS011;11574;51.058;13.712;2023-02-28T10:35:23;9.67;;;5.13;;
22814;SDS011;11574;51.058;13.712;2023-02-28T10:40:28;14.67;;;5.47;;
22814;SDS011;11574;51.058;13.712;2023-02-28T10:45:32;12.40;;;6.47;;
22814;SDS011;11574;51.058;13.712;2023-02-28T10:50:37;10.13;;;6.03;;
22814;SDS011;11574;51.058;13.712;2023-02-28T10:55:39;11.53;;;5.30;;
22814;SDS011;11574;51.058;13.712;2023-02-28T11:00:43;10.47;;;5.83;;
22814;SDS011;11574;51.058;13.712;2023-02-28T11:05:45;12.87;;;6.47;;
22814;SDS011;11574;51.058;13.712;2023-02-28T11:10:53;10.13;;;5.70;;
22814;SDS011;11574;51.058;13.712;2023-02-28T11:15:58;12.37;;;6.10;;
22814;SDS011;11574;51.058;13.712;2023-02-28T11:21:00;17.43;;;6.60;;
22814;SDS011;11574;51.058;13.712;2023-02-28T11:26:03;16.23;;;6.50;;
22814;SDS011;11574;51.058;13.712;2023-02-28T11:31:17;10.57;;;6.23;;
22814;SDS011;11574;51.058;13.712;2023-02-28T11:36:22;14.00;;;6.83;;
22814;SDS011;11574;51.058;13.712;2023-02-28T11:41:39;16.37;;;6.73;;
22814;SDS011;11574;51.058;13.712;2023-02-28T11:46:49;8.43;;;5.43;;
22814;SDS011;11574;51.058;13.712;2023-02-28T11:51:52;11.57;;;6.07;;
22814;SDS011;11574;51.058;13.712;2023-02-28T11:56:57;13.93;;;6.27;;
22814;SDS011;11574;51.058;13.712;2023-02-28T12:02:05;15.70;;;6.63;;
22814;SDS011;11574;51.058;13.712;2023-02-28T12:07:12;13.53;;;6.40;;
22814;SDS011;11574;51.058;13.712;2023-02-28T12:12:19;13.93;;;6.43;;
22814;SDS011;11574;51.058;13.712;2023-02-28T12:17:29;12.37;;;6.53;;
22814;SDS011;11574;51.058;13.712;2023-02-28T12:22:34;11.33;;;6.23;;
22814;SDS011;11574;51.058;13.712;2023-02-28T12:27:38;14.43;;;6.50;;
22814;SDS011;11574;51.058;13.712;2023-02-28T12:32:42;14.47;;;6.73;;
22814;SDS011;11574;51.058;13.712;2023-02-28T12:37:47;11.60;;;6.10;;
22814;SDS011;11574;51.058;13.712;2023-02-28T12:42:52;11.90;;;6.33;;
22814;SDS011;11574;51.058;13.712;2023-02-28T12:47:59;14.30;;;7.00;;
22814;SDS011;11574;51.058;13.712;2023-02-28T12:53:03;15.20;;;7.10;;
22814;SDS011;11574;51.058;13.712;2023-02-28T12:58:08;14.13;;;6.80;;
22814;SDS011;11574;51.058;13.712;2023-02-28T13:03:19;12.77;;;6.37;;
22814;SDS011;11574;51.058;13.712;2023-02-28T13:08:47;11.40;;;6.83;;
22814;SDS011;11574;51.058;13.712;2023-02-28T13:13:57;16.17;;;7.60;;
22814;SDS011;11574;51.058;13.712;2023-02-28T13:19:10;13.83;;;6.97;;
22814;SDS011;11574;51.058;13.712;2023-02-28T13:24:35;13.13;;;6.33;;
22814;SDS011;11574;51.058;13.712;2023-02-28T13:29:38;16.77;;;7.00;;
22814;SDS011;11574;51.058;13.712;2023-02-28T13:34:46;14.63;;;6.20;;
22814;SDS011;11574;51.058;13.712;2023-02-28T13:45:26;11.33;;;7.27;;
22814;SDS011;11574;51.058;13.712;2023-02-28T13:50:33;15.13;;;7.83;;
22814;SDS011;11574;51.058;13.712;2023-02-28T13:55:37;19.77;;;8.63;;
22814;SDS011;11574;51.058;13.712;2023-02-28T14:00:57;13.83;;;7.40;;
22814;SDS011;11574;51.058;13.712;2023-02-28T14:06:15;13.20;;;7.77;;
22814;SDS011;11574;51.058;13.712;2023-02-28T14:11:25;18.13;;;7.57;;
22814;SDS011;11574;51.058;13.712;2023-02-28T14:16:28;14.37;;;7.87;;
22814;SDS011;11574;51.058;13.712;2023-02-28T14:21:39;23.27;;;7.50;;
22814;SDS011;11574;51.058;13.712;2023-02-28T14:26:56;16.07;;;8.33;;
22814;SDS011;11574;51.058;13.712;2023-02-28T14:32:01;16.67;;;8.07;;
22814;SDS011;11574;51.058;13.712;2023-02-28T14:37:05;15.87;;;8.17;;
22814;SDS011;11574;51.058;13.712;2023-02-28T14:47:27;14.97;;;8.20;;
22814;SDS011;11574;51.058;13.712;2023-02-28T14:52:32;14.40;;;8.07;;
22814;SDS011;11574;51.058;13.712;2023-02-28T14:57:35;13.80;;;8.00;;
22814;SDS011;11574;51.058;13.712;2023-02-28T15:02:41;17.30;;;8.43;;
22814;SDS011;11574;51.058;13.712;2023-02-28T15:07:45;12.83;;;7.43;;
22814;SDS011;11574;51.058;13.712;2023-02-28T15:12:49;15.60;;;7.73;;
22814;SDS011;11574;51.058;13.712;2023-02-28T15:17:54;13.03;;;7.73;;
22814;SDS011;11574;51.058;13.712;2023-02-28T15:22:59;16.50;;;7.67;;
22814;SDS011;11574;51.058;13.712;2023-02-28T15:28:02;15.90;;;7.90;;
22814;SDS011;11574;51.058;13.712;2023-02-28T15:33:05;17.60;;;8.40;;
22814;SDS011;11574;51.058;13.712;2023-02-28T15:38:15;16.87;;;8.97;;
22814;SDS011;11574;51.058;13.712;2023-02-28T15:43:18;17.07;;;8.87;;
22814;SDS011;11574;51.058;13.712;2023-02-28T15:48:21;22.43;;;8.90;;
22814;SDS011;11574;51.058;13.712;2023-02-28T15:53:25;15.77;;;8.33;;
22814;SDS011;11574;51.058;13.712;2023-02-28T15:58:30;19.43;;;9.37;;
22814;SDS011;11574;51.058;13.712;2023-02-28T16:03:38;17.30;;;8.10;;
22814;SDS011;11574;51.058;13.712;2023-02-28T16:08:44;18.50;;;8.37;;
22814;SDS011;11574;51.058;13.712;2023-02-28T16:13:48;17.23;;;8.73;;
22814;SDS011;11574;51.058;13.712;2023-02-28T16:18:51;15.00;;;8.37;;
22814;SDS011;11574;51.058;13.712;2023-02-28T16:23:56;15.47;;;9.10;;
22814;SDS011;11574;51.058;13.712;2023-02-28T16:28:58;17.43;;;8.63;;
22814;SDS011;11574;51.058;13.712;2023-02-28T16:34:00;15.60;;;8.87;;
22814;SDS011;11574;51.058;13.712;2023-02-28T16:39:04;16.80;;;9.10;;
22814;SDS011;11574;51.058;13.712;2023-02-28T16:44:07;18.97;;;9.43;;
22814;SDS011;11574;51.058;13.712;2023-02-28T16:49:12;17.33;;;8.77;;
22814;SDS011;11574;51.058;13.712;2023-02-28T16:54:16;15.40;;;8.27;;
22814;SDS011;11574;51.058;13.712;2023-02-28T16:59:18;17.23;;;8.50;;
22814;SDS011;11574;51.058;13.712;2023-02-28T17:04:21;15.87;;;8.03;;
22814;SDS011;11574;51.058;13.712;2023-02-28T17:09:25;14.73;;;8.33;;
22814;SDS011;11574;51.058;13.712;2023-02-28T17:14:27;23.67;;;10.30;;
22814;SDS011;11574;51.058;13.712;2023-02-28T17:19:29;19.80;;;10.50;;
22814;SDS011;11574;51.058;13.712;2023-02-28T17:24:34;21.50;;;10.23;;
22814;SDS011;11574;51.058;13.712;2023-02-28T17:29:37;18.77;;;10.17;;
22814;SDS011;11574;51.058;13.712;2023-02-28T17:34:39;19.43;;;9.73;;
22814;SDS011;11574;51.058;13.712;2023-02-28T17:39:42;24.03;;;10.97;;
22814;SDS011;11574;51.058;13.712;2023-02-28T17:44:45;29.03;;;12.40;;
22814;SDS011;11574;51.058;13.712;2023-02-28T17:49:47;31.87;;;13.23;;
22814;SDS011;11574;51.058;13.712;2023-02-28T17:54:50;22.50;;;11.37;;
22814;SDS011;11574;51.058;13.712;2023-02-28T17:59:52;22.67;;;11.03;;
22814;SDS011;11574;51.058;13.712;2023-02-28T18:04:55;20.53;;;11.07;;
22814;SDS011;11574;51.058;13.712;2023-02-28T18:09:59;31.57;;;11.67;;
22814;SDS011;11574;51.058;13.712;2023-02-28T18:15:03;26.20;;;10.87;;
22814;SDS011;11574;51.058;13.712;2023-02-28T18:20:06;29.23;;;11.77;;
22814;SDS011;11574;51.058;13.712;2023-02-28T18:25:11;24.43;;;13.13;;
22814;SDS011;11574;51.058;13.712;2023-02-28T18:30:16;29.07;;;13.53;;
22814;SDS011;11574;51.058;13.712;2023-02-28T18:35:18;34.70;;;12.63;;
22814;SDS011;11574;51.058;13.712;2023-02-28T18:40:35;40.83;;;13.10;;
22814;SDS011;11574;51.058;13.712;2023-02-28T18:45:38;37.43;;;13.03;;
22814;SDS011;11574;51.058;13.712;2023-02-28T18:50:40;26.70;;;13.00;;
22814;SDS011;11574;51.058;13.712;2023-02-28T18:55:45;46.10;;;15.50;;
22814;SDS011;11574;51.058;13.712;2023-02-28T19:00:47;35.97;;;14.97;;
22814;SDS011;11574;51.058;13.712;2023-02-28T19:05:52;42.60;;;14.27;;
22814;SDS011;11574;51.058;13.712;2023-02-28T19:10:56;28.23;;;14.13;;
22814;SDS011;11574;51.058;13.712;2023-02-28T19:16:02;34.33;;;15.57;;
22814;SDS011;11574;51.058;13.712;2023-02-28T19:21:05;33.00;;;15.17;;
22814;SDS011;11574;51.058;13.712;2023-02-28T19:26:09;30.53;;;15.17;;
22814;SDS011;11574;51.058;13.712;2023-02-28T19:31:12;32.43;;;16.27;;
22814;SDS011;11574;51.058;13.712;2023-02-28T19:36:15;29.13;;;14.07;;
22814;SDS011;11574;51.058;13.712;2023-02-28T19:41:18;36.77;;;15.00;;
22814;SDS011;11574;51.058;13.712;2023-02-28T19:46:21;34.70;;;15.17;;
22814;SDS011;11574;51.058;13.712;2023-02-28T19:51:23;31.10;;;15.90;;
22814;SDS011;11574;51.058;13.712;2023-02-28T19:56:28;35.27;;;15.37;;
22814;SDS011;11574;51.058;13.712;2023-02-28T20:01:30;31.57;;;15.43;;
22814;SDS011;11574;51.058;13.712;2023-02-28T20:06:32;37.67;;;17.83;;
22814;SDS011;11574;51.058;13.712;2023-02-28T20:11:36;31.73;;;16.07;;
22814;SDS011;11574;51.058;13.712;2023-02-28T20:16:38;30.57;;;17.40;;
22814;SDS011;11574;51.058;13.712;2023-02-28T20:21:40;38.43;;;16.60;;
22814;SDS011;11574;51.058;13.712;2023-02-28T20:26:44;34.13;;;17.33;;
22814;SDS011;11574;51.058;13.712;2023-02-28T20:31:46;39.97;;;19.20;;
22814;SDS011;11574;51.058;13.712;2023-02-28T20:36:49;38.07;;;18.83;;
22814;SDS011;11574;51.058;13.712;2023-02-28T20:41:52;38.17;;;19.90;;
22814;SDS011;11574;51.058;13.712;2023-02-28T20:46:54;38.33;;;17.90;;
22814;SDS011;11574;51.058;13.712;2023-02-28T20:51:57;37.53;;;19.00;;
22814;SDS011;11574;51.058;13.712;2023-02-28T20:57:00;43.37;;;18.70;;
22814;SDS011;11574;51.058;13.712;2023-02-28T21:02:02;42.03;;;18.90;;
22814;SDS011;11574;51.058;13.712;2023-02-28T21:07:05;46.27;;;20.93;;
22814;SDS011;11574;51.058;13.712;2023-02-28T21:12:08;43.27;;;21.37;;
22814;SDS011;11574;51.058;13.712;2023-02-28T21:17:10;48.70;;;21.30;;
22814;SDS011;11574;51.058;13.712;2023-02-28T21:22:13;41.07;;;19.87;;
22814;SDS011;11574;51.058;13.712;2023-02-28T21:27:16;45.30;;;21.70;;
22814;SDS011;11574;51.058;13.712;2023-02-28T21:32:19;38.47;;;20.73;;
22814;SDS011;11574;51.058;13.712;2023-02-28T21:37:21;40.40;;;20.27;;
22814;SDS011;11574;51.058;13.712;2023-02-28T21:42:26;42.23;;;21.20;;
22814;SDS011;11574;51.058;13.712;2023-02-28T21:47:29;42.13;;;21.17;;
22814;SDS011;11574;51.058;13.712;2023-02-28T21:52:31;43.13;;;20.90;;
22814;SDS011;11574;51.058;13.712;2023-02-28T21:57:35;67.87;;;29.83;;
22814;SDS011;11574;51.058;13.712;2023-02-28T22:02:37;45.90;;;22.40;;
22814;SDS011;11574;51.058;13.712;2023-02-28T22:07:39;44.10;;;21.63;;
22814;SDS011;11574;51.058;13.712;2023-02-28T22:12:43;45.97;;;20.13;;
22814;SDS011;11574;51.058;13.712;2023-02-28T22:17:45;41.20;;;19.07;;
22814;SDS011;11574;51.058;13.712;2023-02-28T22:22:48;37.80;;;17.77;;
22814;SDS011;11574;51.058;13.712;2023-02-28T22:27:51;44.40;;;18.73;;
22814;SDS011;11574;51.058;13.712;2023-02-28T22:32:53;35.47;;;17.73;;
22814;SDS011;11574;51.058;13.712;2023-02-28T22:37:56;35.63;;;17.70;;
22814;SDS011;11574;51.058;13.712;2023-02-28T22:42:59;35.17;;;16.63;;
22814;SDS011;11574;51.058;13.712;2023-02-28T22:48:02;36.97;;;18.00;;
22814;SDS011;11574;51.058;13.712;2023-02-28T22:53:04;29.93;;;16.70;;
22814;SDS011;11574;51.058;13.712;2023-02-28T22:58:07;30.73;;;17.10;;
22814;SDS011;11574;51.058;13.712;2023-02-28T23:03:09;36.83;;;16.37;;
22814;SDS011;11574;51.058;13.712;2023-02-28T23:08:12;34.40;;;18.07;;
22814;SDS011;11574;51.058;13.712;2023-02-28T23:13:16;34.30;;;16.93;;
22814;SDS011;11574;51.058;13.712;2023-02-28T23:18:19;33.07;;;16.60;;
22814;SDS011;11574;51.058;13.712;2023-02-28T23:23:21;33.13;;;16.53;;
22814;SDS011;11574;51.058;13.712;2023-02-28T23:28:24;41.83;;;17.97;;
22814;SDS011;11574;51.058;13.712;2023-02-28T23:33:26;34.97;;;16.47;;
22814;SDS011;11574;51.058;13.712;2023-02-28T23:38:29;35.53;;;17.30;;
22814;SDS011;11574;51.058;13.712;2023-02-28T23:43:32;32.70;;;16.57;;
22814;SDS011;11574;51.058;13.712;2023-02-28T23:48:35;39.87;;;17.40;;
22814;SDS011;11574;51.058;13.712;2023-02-28T23:53:38;31.90;;;17.07;;
22814;SDS011;11574;51.058;13.712;2023-02-28T23:58:42;37.57;;;17.47;;
